sensor_id;sensor_type;location;lat;lon;timestamp;P1;durP1;ratioP1;P2;durP2;ratioP2
37517;SDS011;23366;52.498;13.446;2023-04-24T00:00:32;3.78;;;2.70;;
37517;SDS011;23366;52.498;13.446;2023-04-24T00:02:58;3.15;;;2.53;;
37517;SDS011;23366;52.498;13.446;2023-04-24T00:05:24;4.30;;;2.88;;
37517;SDS011;23366;52.498;13.446;2023-04-24T00:07:50;3.80;;;3.00;;
37517;SDS011;23366;52.498;13.446;2023-04-24T00:10:19;5.22;;;2.70;;
37517;SDS011;23366;52.498;13.446;2023-04-24T00:12:44;3.90;;;3.13;;
37517;SDS011;23366;52.498;13.446;2023-04-24T00:15:10;3.60;;;2.88;;
37517;SDS011;23366;52.498;13.446;2023-04-24T00:17:36;7.05;;;2.95;;
37517;SDS011;23366;52.498;13.446;2023-04-24T00:20:02;3.35;;;2.25;;
37517;SDS011;23366;52.498;13.446;2023-04-24T00:22:29;5.45;;;2.90;;
37517;SDS011;23366;52.498;13.446;2023-04-24T00:24:55;3.83;;;2.55;;
37517;SDS011;23366;52.498;13.446;2023-04-24T00:27:21;4.22;;;3.00;;
37517;SDS011;23366;52.498;13.446;2023-04-24T00:29:46;5.07;;;3.25;;
37517;SDS011;23366;52.498;13.446;2023-04-24T00:32:13;4.07;;;2.92;;
37517;SDS011;23366;52.498;13.446;2023-04-24T00:34:39;10.95;;;2.83;;
37517;SDS011;23366;52.498;13.446;2023-04-24T00:37:05;11.48;;;2.83;;
37517;SDS011;23366;52.498;13.446;2023-04-24T00:39:31;4.95;;;3.60;;
37517;SDS011;23366;52.498;13.446;2023-04-24T00:41:57;4.57;;;2.90;;
37517;SDS011;23366;52.498;13.446;2023-04-24T00:44:22;3.90;;;3.28;;
37517;SDS011;23366;52.498;13.446;2023-04-24T00:46:48;3.60;;;3.00;;
37517;SDS011;23366;52.498;13.446;2023-04-24T00:49:19;3.38;;;2.75;;
37517;SDS011;23366;52.498;13.446;2023-04-24T00:51:46;3.88;;;2.65;;
37517;SDS011;23366;52.498;13.446;2023-04-24T00:54:15;3.85;;;3.40;;
37517;SDS011;23366;52.498;13.446;2023-04-24T00:56:41;4.25;;;2.72;;
37517;SDS011;23366;52.498;13.446;2023-04-24T00:59:07;5.53;;;3.42;;
37517;SDS011;23366;52.498;13.446;2023-04-24T01:01:33;4.10;;;2.97;;
37517;SDS011;23366;52.498;13.446;2023-04-24T01:03:59;4.35;;;3.33;;
37517;SDS011;23366;52.498;13.446;2023-04-24T01:06:27;4.75;;;2.70;;
37517;SDS011;23366;52.498;13.446;2023-04-24T01:08:53;4.10;;;3.53;;
37517;SDS011;23366;52.498;13.446;2023-04-24T01:11:20;5.28;;;3.28;;
37517;SDS011;23366;52.498;13.446;2023-04-24T01:13:47;4.43;;;3.13;;
37517;SDS011;23366;52.498;13.446;2023-04-24T01:16:13;2.22;;;1.92;;
37517;SDS011;23366;52.498;13.446;2023-04-24T01:18:39;4.65;;;2.80;;
37517;SDS011;23366;52.498;13.446;2023-04-24T01:21:06;6.95;;;2.97;;
37517;SDS011;23366;52.498;13.446;2023-04-24T01:23:33;2.92;;;2.60;;
37517;SDS011;23366;52.498;13.446;2023-04-24T01:25:59;4.70;;;3.08;;
37517;SDS011;23366;52.498;13.446;2023-04-24T01:28:25;8.43;;;2.83;;
37517;SDS011;23366;52.498;13.446;2023-04-24T01:30:51;3.58;;;2.70;;
37517;SDS011;23366;52.498;13.446;2023-04-24T01:33:17;4.30;;;3.38;;
37517;SDS011;23366;52.498;13.446;2023-04-24T01:35:43;3.47;;;2.70;;
37517;SDS011;23366;52.498;13.446;2023-04-24T01:38:08;5.00;;;3.17;;
37517;SDS011;23366;52.498;13.446;2023-04-24T01:40:34;3.65;;;2.85;;
37517;SDS011;23366;52.498;13.446;2023-04-24T01:43:00;4.88;;;3.38;;
37517;SDS011;23366;52.498;13.446;2023-04-24T01:45:25;5.43;;;3.00;;
37517;SDS011;23366;52.498;13.446;2023-04-24T01:47:51;4.25;;;2.92;;
37517;SDS011;23366;52.498;13.446;2023-04-24T01:50:17;3.33;;;2.60;;
37517;SDS011;23366;52.498;13.446;2023-04-24T01:52:43;6.65;;;3.58;;
37517;SDS011;23366;52.498;13.446;2023-04-24T01:55:08;5.82;;;3.08;;
37517;SDS011;23366;52.498;13.446;2023-04-24T01:57:34;3.20;;;2.85;;
37517;SDS011;23366;52.498;13.446;2023-04-24T02:00:00;5.22;;;3.13;;
37517;SDS011;23366;52.498;13.446;2023-04-24T02:02:28;4.25;;;3.80;;
37517;SDS011;23366;52.498;13.446;2023-04-24T02:04:54;5.70;;;3.70;;
37517;SDS011;23366;52.498;13.446;2023-04-24T02:07:20;4.60;;;2.88;;
37517;SDS011;23366;52.498;13.446;2023-04-24T02:09:46;5.30;;;3.55;;
37517;SDS011;23366;52.498;13.446;2023-04-24T02:12:11;3.55;;;2.72;;
37517;SDS011;23366;52.498;13.446;2023-04-24T02:14:37;5.32;;;3.42;;
37517;SDS011;23366;52.498;13.446;2023-04-24T02:17:02;4.25;;;3.08;;
37517;SDS011;23366;52.498;13.446;2023-04-24T02:19:28;3.83;;;3.28;;
37517;SDS011;23366;52.498;13.446;2023-04-24T02:21:53;5.68;;;3.30;;
37517;SDS011;23366;52.498;13.446;2023-04-24T02:24:19;5.68;;;4.13;;
37517;SDS011;23366;52.498;13.446;2023-04-24T02:26:44;4.78;;;3.35;;
37517;SDS011;23366;52.498;13.446;2023-04-24T02:29:10;6.03;;;4.47;;
37517;SDS011;23366;52.498;13.446;2023-04-24T02:31:35;5.20;;;3.63;;
37517;SDS011;23366;52.498;13.446;2023-04-24T02:34:01;4.57;;;3.63;;
37517;SDS011;23366;52.498;13.446;2023-04-24T02:36:26;5.70;;;3.65;;
37517;SDS011;23366;52.498;13.446;2023-04-24T02:38:52;5.15;;;3.10;;
37517;SDS011;23366;52.498;13.446;2023-04-24T02:41:17;4.00;;;3.60;;
37517;SDS011;23366;52.498;13.446;2023-04-24T02:43:43;3.25;;;2.70;;
37517;SDS011;23366;52.498;13.446;2023-04-24T02:46:08;4.50;;;3.03;;
37517;SDS011;23366;52.498;13.446;2023-04-24T02:48:34;3.83;;;3.08;;
37517;SDS011;23366;52.498;13.446;2023-04-24T02:50:59;4.80;;;3.20;;
37517;SDS011;23366;52.498;13.446;2023-04-24T02:53:25;7.00;;;4.32;;
37517;SDS011;23366;52.498;13.446;2023-04-24T02:55:50;7.38;;;3.78;;
37517;SDS011;23366;52.498;13.446;2023-04-24T02:58:16;7.43;;;4.43;;
37517;SDS011;23366;52.498;13.446;2023-04-24T03:00:42;6.70;;;4.10;;
37517;SDS011;23366;52.498;13.446;2023-04-24T03:03:08;10.13;;;4.97;;
37517;SDS011;23366;52.498;13.446;2023-04-24T03:05:33;7.73;;;5.10;;
37517;SDS011;23366;52.498;13.446;2023-04-24T03:07:59;8.02;;;4.25;;
37517;SDS011;23366;52.498;13.446;2023-04-24T03:10:24;9.90;;;4.38;;
37517;SDS011;23366;52.498;13.446;2023-04-24T03:12:50;8.80;;;5.05;;
37517;SDS011;23366;52.498;13.446;2023-04-24T03:15:16;9.70;;;4.72;;
37517;SDS011;23366;52.498;13.446;2023-04-24T03:17:41;7.30;;;4.32;;
37517;SDS011;23366;52.498;13.446;2023-04-24T03:20:07;7.28;;;4.10;;
37517;SDS011;23366;52.498;13.446;2023-04-24T03:22:33;9.90;;;3.97;;
37517;SDS011;23366;52.498;13.446;2023-04-24T03:24:59;5.68;;;3.42;;
37517;SDS011;23366;52.498;13.446;2023-04-24T03:27:24;6.18;;;4.30;;
37517;SDS011;23366;52.498;13.446;2023-04-24T03:29:50;4.40;;;3.67;;
37517;SDS011;23366;52.498;13.446;2023-04-24T03:32:20;5.05;;;3.58;;
37517;SDS011;23366;52.498;13.446;2023-04-24T03:34:47;4.00;;;3.60;;
37517;SDS011;23366;52.498;13.446;2023-04-24T03:37:13;5.05;;;3.72;;
37517;SDS011;23366;52.498;13.446;2023-04-24T03:39:38;4.75;;;3.00;;
37517;SDS011;23366;52.498;13.446;2023-04-24T03:42:04;5.35;;;3.15;;
37517;SDS011;23366;52.498;13.446;2023-04-24T03:44:29;5.45;;;3.90;;
37517;SDS011;23366;52.498;13.446;2023-04-24T03:46:55;4.57;;;3.10;;
37517;SDS011;23366;52.498;13.446;2023-04-24T03:49:20;6.60;;;2.70;;
37517;SDS011;23366;52.498;13.446;2023-04-24T03:51:46;5.00;;;2.95;;
37517;SDS011;23366;52.498;13.446;2023-04-24T03:54:12;5.03;;;3.38;;
37517;SDS011;23366;52.498;13.446;2023-04-24T03:56:38;4.30;;;3.35;;
37517;SDS011;23366;52.498;13.446;2023-04-24T03:59:04;4.60;;;3.30;;
37517;SDS011;23366;52.498;13.446;2023-04-24T04:01:29;6.32;;;4.20;;
37517;SDS011;23366;52.498;13.446;2023-04-24T04:03:55;6.20;;;4.05;;
37517;SDS011;23366;52.498;13.446;2023-04-24T04:06:21;5.90;;;3.75;;
37517;SDS011;23366;52.498;13.446;2023-04-24T04:08:46;6.05;;;3.72;;
37517;SDS011;23366;52.498;13.446;2023-04-24T04:11:12;4.30;;;3.85;;
37517;SDS011;23366;52.498;13.446;2023-04-24T04:13:38;7.75;;;3.53;;
37517;SDS011;23366;52.498;13.446;2023-04-24T04:16:03;4.60;;;3.47;;
37517;SDS011;23366;52.498;13.446;2023-04-24T04:18:29;3.17;;;2.85;;
37517;SDS011;23366;52.498;13.446;2023-04-24T04:20:55;5.47;;;3.55;;
37517;SDS011;23366;52.498;13.446;2023-04-24T04:23:21;4.38;;;3.03;;
37517;SDS011;23366;52.498;13.446;2023-04-24T04:25:47;6.55;;;4.57;;
37517;SDS011;23366;52.498;13.446;2023-04-24T04:28:13;3.38;;;2.47;;
37517;SDS011;23366;52.498;13.446;2023-04-24T04:30:38;5.47;;;3.40;;
37517;SDS011;23366;52.498;13.446;2023-04-24T04:33:05;5.15;;;3.88;;
37517;SDS011;23366;52.498;13.446;2023-04-24T04:35:30;6.05;;;3.85;;
37517;SDS011;23366;52.498;13.446;2023-04-24T04:37:55;4.63;;;3.45;;
37517;SDS011;23366;52.498;13.446;2023-04-24T04:40:23;4.05;;;3.13;;
37517;SDS011;23366;52.498;13.446;2023-04-24T04:42:49;4.72;;;3.33;;
37517;SDS011;23366;52.498;13.446;2023-04-24T04:45:17;6.07;;;3.22;;
37517;SDS011;23366;52.498;13.446;2023-04-24T04:47:43;5.80;;;3.90;;
37517;SDS011;23366;52.498;13.446;2023-04-24T04:50:09;5.93;;;4.22;;
37517;SDS011;23366;52.498;13.446;2023-04-24T04:52:35;4.90;;;3.05;;
37517;SDS011;23366;52.498;13.446;2023-04-24T04:55:01;7.90;;;3.05;;
37517;SDS011;23366;52.498;13.446;2023-04-24T04:57:26;4.93;;;3.22;;
37517;SDS011;23366;52.498;13.446;2023-04-24T04:59:52;5.88;;;3.08;;
37517;SDS011;23366;52.498;13.446;2023-04-24T05:02:17;5.38;;;3.10;;
37517;SDS011;23366;52.498;13.446;2023-04-24T05:04:43;4.07;;;2.63;;
37517;SDS011;23366;52.498;13.446;2023-04-24T05:07:08;4.38;;;2.88;;
37517;SDS011;23366;52.498;13.446;2023-04-24T05:09:34;4.25;;;2.85;;
37517;SDS011;23366;52.498;13.446;2023-04-24T05:11:59;8.38;;;3.95;;
37517;SDS011;23366;52.498;13.446;2023-04-24T05:14:25;3.83;;;3.15;;
37517;SDS011;23366;52.498;13.446;2023-04-24T05:16:50;6.30;;;3.97;;
37517;SDS011;23366;52.498;13.446;2023-04-24T05:19:16;5.38;;;3.45;;
37517;SDS011;23366;52.498;13.446;2023-04-24T05:21:41;16.77;;;9.60;;
37517;SDS011;23366;52.498;13.446;2023-04-24T05:24:07;15.90;;;7.97;;
37517;SDS011;23366;52.498;13.446;2023-04-24T05:26:32;10.25;;;6.28;;
37517;SDS011;23366;52.498;13.446;2023-04-24T05:28:58;13.07;;;7.03;;
37517;SDS011;23366;52.498;13.446;2023-04-24T05:31:23;9.20;;;4.75;;
37517;SDS011;23366;52.498;13.446;2023-04-24T05:33:50;6.47;;;3.72;;
37517;SDS011;23366;52.498;13.446;2023-04-24T05:36:15;4.93;;;3.22;;
37517;SDS011;23366;52.498;13.446;2023-04-24T05:38:41;5.18;;;2.67;;
37517;SDS011;23366;52.498;13.446;2023-04-24T05:41:06;3.08;;;2.53;;
37517;SDS011;23366;52.498;13.446;2023-04-24T05:43:32;2.88;;;2.30;;
37517;SDS011;23366;52.498;13.446;2023-04-24T05:45:57;2.60;;;1.77;;
37517;SDS011;23366;52.498;13.446;2023-04-24T05:48:22;6.70;;;1.90;;
37517;SDS011;23366;52.498;13.446;2023-04-24T05:50:48;8.30;;;2.55;;
37517;SDS011;23366;52.498;13.446;2023-04-24T05:53:14;5.18;;;2.22;;
37517;SDS011;23366;52.498;13.446;2023-04-24T05:55:39;8.43;;;2.25;;
37517;SDS011;23366;52.498;13.446;2023-04-24T05:58:05;3.92;;;1.88;;
37517;SDS011;23366;52.498;13.446;2023-04-24T06:00:31;1.77;;;1.52;;
37517;SDS011;23366;52.498;13.446;2023-04-24T06:02:57;2.00;;;1.25;;
37517;SDS011;23366;52.498;13.446;2023-04-24T06:05:23;1.85;;;1.25;;
37517;SDS011;23366;52.498;13.446;2023-04-24T06:07:49;1.40;;;1.27;;
37517;SDS011;23366;52.498;13.446;2023-04-24T06:10:14;3.78;;;1.40;;
37517;SDS011;23366;52.498;13.446;2023-04-24T06:12:40;1.55;;;1.35;;
37517;SDS011;23366;52.498;13.446;2023-04-24T06:15:06;1.45;;;1.15;;
37517;SDS011;23366;52.498;13.446;2023-04-24T06:17:32;2.90;;;1.70;;
37517;SDS011;23366;52.498;13.446;2023-04-24T06:19:57;1.02;;;0.80;;
37517;SDS011;23366;52.498;13.446;2023-04-24T06:22:23;0.93;;;0.57;;
37517;SDS011;23366;52.498;13.446;2023-04-24T06:24:48;1.65;;;1.02;;
37517;SDS011;23366;52.498;13.446;2023-04-24T06:27:14;1.50;;;0.80;;
37517;SDS011;23366;52.498;13.446;2023-04-24T06:29:39;1.48;;;0.52;;
37517;SDS011;23366;52.498;13.446;2023-04-24T06:32:05;2.60;;;0.70;;
37517;SDS011;23366;52.498;13.446;2023-04-24T06:34:30;0.82;;;0.65;;
37517;SDS011;23366;52.498;13.446;2023-04-24T06:36:57;1.23;;;0.60;;
37517;SDS011;23366;52.498;13.446;2023-04-24T06:39:23;0.77;;;0.63;;
37517;SDS011;23366;52.498;13.446;2023-04-24T06:44:46;2.38;;;1.30;;
37517;SDS011;23366;52.498;13.446;2023-04-24T06:47:15;0.82;;;0.70;;
37517;SDS011;23366;52.498;13.446;2023-04-24T06:49:41;1.45;;;0.43;;
37517;SDS011;23366;52.498;13.446;2023-04-24T06:52:07;0.35;;;0.30;;
37517;SDS011;23366;52.498;13.446;2023-04-24T06:54:33;1.65;;;0.70;;
37517;SDS011;23366;52.498;13.446;2023-04-24T06:57:31;0.47;;;0.40;;
37517;SDS011;23366;52.498;13.446;2023-04-24T06:59:57;0.65;;;0.30;;
37517;SDS011;23366;52.498;13.446;2023-04-24T07:02:22;0.50;;;0.35;;
37517;SDS011;23366;52.498;13.446;2023-04-24T07:04:48;0.55;;;0.52;;
37517;SDS011;23366;52.498;13.446;2023-04-24T07:07:13;0.60;;;0.40;;
37517;SDS011;23366;52.498;13.446;2023-04-24T07:09:39;0.98;;;0.60;;
37517;SDS011;23366;52.498;13.446;2023-04-24T07:12:10;0.85;;;0.50;;
37517;SDS011;23366;52.498;13.446;2023-04-24T07:14:39;0.20;;;0.20;;
37517;SDS011;23366;52.498;13.446;2023-04-24T07:17:05;0.50;;;0.43;;
37517;SDS011;23366;52.498;13.446;2023-04-24T07:19:31;0.28;;;0.20;;
37517;SDS011;23366;52.498;13.446;2023-04-24T07:21:58;2.10;;;0.30;;
37517;SDS011;23366;52.498;13.446;2023-04-24T07:24:24;0.30;;;0.25;;
37517;SDS011;23366;52.498;13.446;2023-04-24T07:26:50;0.93;;;0.40;;
37517;SDS011;23366;52.498;13.446;2023-04-24T07:29:17;0.85;;;0.30;;
37517;SDS011;23366;52.498;13.446;2023-04-24T07:31:42;1.02;;;0.40;;
37517;SDS011;23366;52.498;13.446;2023-04-24T07:34:08;0.30;;;0.25;;
37517;SDS011;23366;52.498;13.446;2023-04-24T07:36:33;0.82;;;0.30;;
37517;SDS011;23366;52.498;13.446;2023-04-24T07:38:59;2.88;;;0.52;;
37517;SDS011;23366;52.498;13.446;2023-04-24T07:41:24;2.63;;;0.10;;
37517;SDS011;23366;52.498;13.446;2023-04-24T07:43:50;2.42;;;0.45;;
37517;SDS011;23366;52.498;13.446;2023-04-24T07:46:15;0.60;;;0.28;;
37517;SDS011;23366;52.498;13.446;2023-04-24T07:48:54;1.27;;;0.28;;
37517;SDS011;23366;52.498;13.446;2023-04-24T07:51:26;0.28;;;0.28;;
37517;SDS011;23366;52.498;13.446;2023-04-24T07:53:55;0.22;;;0.20;;
37517;SDS011;23366;52.498;13.446;2023-04-24T07:56:21;0.60;;;0.10;;
37517;SDS011;23366;52.498;13.446;2023-04-24T07:58:46;0.40;;;0.20;;
37517;SDS011;23366;52.498;13.446;2023-04-24T08:01:15;1.40;;;0.30;;
37517;SDS011;23366;52.498;13.446;2023-04-24T08:03:40;0.17;;;0.17;;
37517;SDS011;23366;52.498;13.446;2023-04-24T08:06:06;0.68;;;0.45;;
37517;SDS011;23366;52.498;13.446;2023-04-24T08:08:35;1.25;;;0.40;;
37517;SDS011;23366;52.498;13.446;2023-04-24T08:11:00;0.63;;;0.17;;
37517;SDS011;23366;52.498;13.446;2023-04-24T08:13:26;0.17;;;0.10;;
37517;SDS011;23366;52.498;13.446;2023-04-24T08:15:52;0.10;;;0.10;;
37517;SDS011;23366;52.498;13.446;2023-04-24T08:18:18;0.30;;;0.20;;
37517;SDS011;23366;52.498;13.446;2023-04-24T08:20:43;0.35;;;0.20;;
37517;SDS011;23366;52.498;13.446;2023-04-24T08:23:10;0.45;;;0.45;;
37517;SDS011;23366;52.498;13.446;2023-04-24T08:25:39;0.20;;;0.20;;
37517;SDS011;23366;52.498;13.446;2023-04-24T08:28:05;0.38;;;0.20;;
37517;SDS011;23366;52.498;13.446;2023-04-24T08:30:33;0.40;;;0.40;;
37517;SDS011;23366;52.498;13.446;2023-04-24T08:33:01;2.55;;;0.32;;
37517;SDS011;23366;52.498;13.446;2023-04-24T08:35:27;0.52;;;0.25;;
37517;SDS011;23366;52.498;13.446;2023-04-24T08:37:52;0.75;;;0.75;;
37517;SDS011;23366;52.498;13.446;2023-04-24T08:40:18;0.35;;;0.17;;
37517;SDS011;23366;52.498;13.446;2023-04-24T08:42:52;1.00;;;0.50;;
37517;SDS011;23366;52.498;13.446;2023-04-24T08:45:55;0.30;;;0.20;;
37517;SDS011;23366;52.498;13.446;2023-04-24T08:48:21;0.28;;;0.28;;
37517;SDS011;23366;52.498;13.446;2023-04-24T08:50:48;6.20;;;0.43;;
37517;SDS011;23366;52.498;13.446;2023-04-24T08:53:24;0.30;;;0.10;;
37517;SDS011;23366;52.498;13.446;2023-04-24T08:55:57;0.32;;;0.20;;
37517;SDS011;23366;52.498;13.446;2023-04-24T08:58:29;0.40;;;0.20;;
37517;SDS011;23366;52.498;13.446;2023-04-24T09:01:04;0.43;;;0.40;;
37517;SDS011;23366;52.498;13.446;2023-04-24T09:03:37;0.55;;;0.20;;
37517;SDS011;23366;52.498;13.446;2023-04-24T09:06:03;0.22;;;0.17;;
37517;SDS011;23366;52.498;13.446;2023-04-24T09:08:33;0.85;;;0.28;;
37517;SDS011;23366;52.498;13.446;2023-04-24T09:11:03;1.38;;;0.55;;
37517;SDS011;23366;52.498;13.446;2023-04-24T09:13:30;2.38;;;0.30;;
37517;SDS011;23366;52.498;13.446;2023-04-24T09:16:13;0.93;;;0.30;;
37517;SDS011;23366;52.498;13.446;2023-04-24T09:18:39;0.50;;;0.30;;
37517;SDS011;23366;52.498;13.446;2023-04-24T09:21:08;0.22;;;0.22;;
37517;SDS011;23366;52.498;13.446;2023-04-24T09:23:37;0.63;;;0.32;;
37517;SDS011;23366;52.498;13.446;2023-04-24T09:26:11;0.30;;;0.30;;
37517;SDS011;23366;52.498;13.446;2023-04-24T09:28:40;1.38;;;0.52;;
37517;SDS011;23366;52.498;13.446;2023-04-24T09:31:13;0.52;;;0.32;;
37517;SDS011;23366;52.498;13.446;2023-04-24T09:34:02;0.52;;;0.32;;
37517;SDS011;23366;52.498;13.446;2023-04-24T09:36:31;2.38;;;0.40;;
37517;SDS011;23366;52.498;13.446;2023-04-24T09:38:59;1.45;;;0.82;;
37517;SDS011;23366;52.498;13.446;2023-04-24T09:41:29;0.85;;;0.45;;
37517;SDS011;23366;52.498;13.446;2023-04-24T09:44:09;0.80;;;0.47;;
37517;SDS011;23366;52.498;13.446;2023-04-24T09:46:37;1.45;;;0.40;;
37517;SDS011;23366;52.498;13.446;2023-04-24T09:49:07;1.00;;;0.70;;
37517;SDS011;23366;52.498;13.446;2023-04-24T09:51:41;0.40;;;0.30;;
37517;SDS011;23366;52.498;13.446;2023-04-24T09:54:27;1.15;;;0.32;;
37517;SDS011;23366;52.498;13.446;2023-04-24T09:56:54;0.55;;;0.32;;
37517;SDS011;23366;52.498;13.446;2023-04-24T09:59:23;0.93;;;0.63;;
37517;SDS011;23366;52.498;13.446;2023-04-24T10:01:49;0.40;;;0.30;;
37517;SDS011;23366;52.498;13.446;2023-04-24T10:04:21;0.90;;;0.55;;
37517;SDS011;23366;52.498;13.446;2023-04-24T10:06:49;1.73;;;0.30;;
37517;SDS011;23366;52.498;13.446;2023-04-24T10:09:17;1.20;;;0.45;;
37517;SDS011;23366;52.498;13.446;2023-04-24T10:11:47;1.27;;;0.57;;
37517;SDS011;23366;52.498;13.446;2023-04-24T10:14:18;0.38;;;0.30;;
37517;SDS011;23366;52.498;13.446;2023-04-24T10:16:52;0.70;;;0.40;;
37517;SDS011;23366;52.498;13.446;2023-04-24T10:19:19;1.38;;;0.40;;
37517;SDS011;23366;52.498;13.446;2023-04-24T10:21:45;1.02;;;0.40;;
37517;SDS011;23366;52.498;13.446;2023-04-24T10:24:15;2.05;;;0.30;;
37517;SDS011;23366;52.498;13.446;2023-04-24T10:26:45;0.83;;;0.50;;
37517;SDS011;23366;52.498;13.446;2023-04-24T10:29:21;0.38;;;0.35;;
37517;SDS011;23366;52.498;13.446;2023-04-24T10:31:57;0.98;;;0.32;;
37517;SDS011;23366;52.498;13.446;2023-04-24T10:34:25;0.73;;;0.40;;
37517;SDS011;23366;52.498;13.446;2023-04-24T10:36:51;0.20;;;0.20;;
37517;SDS011;23366;52.498;13.446;2023-04-24T10:39:18;1.70;;;0.57;;
37517;SDS011;23366;52.498;13.446;2023-04-24T10:44:49;1.55;;;0.90;;
37517;SDS011;23366;52.498;13.446;2023-04-24T10:47:32;0.60;;;0.38;;
37517;SDS011;23366;52.498;13.446;2023-04-24T10:50:16;0.50;;;0.30;;
37517;SDS011;23366;52.498;13.446;2023-04-24T10:52:52;0.20;;;0.20;;
37517;SDS011;23366;52.498;13.446;2023-04-24T10:58:04;1.48;;;0.65;;
37517;SDS011;23366;52.498;13.446;2023-04-24T11:00:30;1.05;;;0.50;;
37517;SDS011;23366;52.498;13.446;2023-04-24T11:02:56;0.50;;;0.40;;
37517;SDS011;23366;52.498;13.446;2023-04-24T11:05:22;0.32;;;0.20;;
37517;SDS011;23366;52.498;13.446;2023-04-24T11:11:15;0.52;;;0.32;;
37517;SDS011;23366;52.498;13.446;2023-04-24T11:16:35;0.60;;;0.35;;
37517;SDS011;23366;52.498;13.446;2023-04-24T11:19:08;0.15;;;0.15;;
37517;SDS011;23366;52.498;13.446;2023-04-24T11:21:46;1.00;;;0.68;;
37517;SDS011;23366;52.498;13.446;2023-04-24T11:26:56;1.23;;;0.70;;
37517;SDS011;23366;52.498;13.446;2023-04-24T11:29:41;1.63;;;0.57;;
37517;SDS011;23366;52.498;13.446;2023-04-24T11:32:27;0.73;;;0.40;;
37517;SDS011;23366;52.498;13.446;2023-04-24T11:35:04;4.30;;;0.90;;
37517;SDS011;23366;52.498;13.446;2023-04-24T11:37:35;0.50;;;0.50;;
37517;SDS011;23366;52.498;13.446;2023-04-24T11:40:02;0.80;;;0.60;;
37517;SDS011;23366;52.498;13.446;2023-04-24T11:42:40;1.65;;;0.63;;
37517;SDS011;23366;52.498;13.446;2023-04-24T11:50:15;1.92;;;0.80;;
37517;SDS011;23366;52.498;13.446;2023-04-24T11:52:46;2.55;;;0.73;;
37517;SDS011;23366;52.498;13.446;2023-04-24T12:00:16;1.73;;;0.70;;
37517;SDS011;23366;52.498;13.446;2023-04-24T12:02:42;1.77;;;0.43;;
37517;SDS011;23366;52.498;13.446;2023-04-24T12:05:08;0.60;;;0.50;;
37517;SDS011;23366;52.498;13.446;2023-04-24T12:07:40;3.55;;;1.20;;
37517;SDS011;23366;52.498;13.446;2023-04-24T12:10:09;4.32;;;1.15;;
37517;SDS011;23366;52.498;13.446;2023-04-24T12:12:35;0.63;;;0.63;;
37517;SDS011;23366;52.498;13.446;2023-04-24T12:15:01;0.95;;;0.47;;
37517;SDS011;23366;52.498;13.446;2023-04-24T12:17:53;0.63;;;0.52;;
37517;SDS011;23366;52.498;13.446;2023-04-24T12:24:23;2.15;;;1.10;;
37517;SDS011;23366;52.498;13.446;2023-04-24T12:26:49;1.77;;;0.85;;
37517;SDS011;23366;52.498;13.446;2023-04-24T12:36:36;1.60;;;0.73;;
37517;SDS011;23366;52.498;13.446;2023-04-24T12:39:01;0.65;;;0.65;;
37517;SDS011;23366;52.498;13.446;2023-04-24T12:41:36;1.52;;;0.40;;
37517;SDS011;23366;52.498;13.446;2023-04-24T12:44:01;1.00;;;0.57;;
37517;SDS011;23366;52.498;13.446;2023-04-24T12:49:19;0.52;;;0.30;;
37517;SDS011;23366;52.498;13.446;2023-04-24T12:51:44;1.20;;;0.88;;
37517;SDS011;23366;52.498;13.446;2023-04-24T12:54:13;0.65;;;0.65;;
37517;SDS011;23366;52.498;13.446;2023-04-24T12:56:39;0.82;;;0.32;;
37517;SDS011;23366;52.498;13.446;2023-04-24T12:59:06;0.88;;;0.50;;
37517;SDS011;23366;52.498;13.446;2023-04-24T13:01:32;0.80;;;0.70;;
37517;SDS011;23366;52.498;13.446;2023-04-24T13:04:06;1.15;;;0.55;;
37517;SDS011;23366;52.498;13.446;2023-04-24T13:06:31;0.98;;;0.40;;
37517;SDS011;23366;52.498;13.446;2023-04-24T13:08:57;0.57;;;0.40;;
37517;SDS011;23366;52.498;13.446;2023-04-24T13:11:23;0.63;;;0.40;;
37517;SDS011;23366;52.498;13.446;2023-04-24T13:13:49;0.80;;;0.60;;
37517;SDS011;23366;52.498;13.446;2023-04-24T13:16:15;1.15;;;0.90;;
37517;SDS011;23366;52.498;13.446;2023-04-24T13:18:40;1.08;;;0.57;;
37517;SDS011;23366;52.498;13.446;2023-04-24T13:21:06;1.35;;;0.68;;
37517;SDS011;23366;52.498;13.446;2023-04-24T13:23:32;1.58;;;0.63;;
37517;SDS011;23366;52.498;13.446;2023-04-24T13:26:03;1.27;;;0.70;;
37517;SDS011;23366;52.498;13.446;2023-04-24T13:28:35;0.75;;;0.55;;
37517;SDS011;23366;52.498;13.446;2023-04-24T13:31:00;5.57;;;1.23;;
37517;SDS011;23366;52.498;13.446;2023-04-24T13:33:26;0.40;;;0.40;;
37517;SDS011;23366;52.498;13.446;2023-04-24T13:35:54;0.93;;;0.45;;
37517;SDS011;23366;52.498;13.446;2023-04-24T13:38:26;0.57;;;0.35;;
37517;SDS011;23366;52.498;13.446;2023-04-24T13:41:00;1.95;;;0.30;;
37517;SDS011;23366;52.498;13.446;2023-04-24T13:43:28;1.70;;;1.02;;
37517;SDS011;23366;52.498;13.446;2023-04-24T13:45:54;1.23;;;0.70;;
37517;SDS011;23366;52.498;13.446;2023-04-24T13:48:20;0.95;;;0.60;;
37517;SDS011;23366;52.498;13.446;2023-04-24T13:50:45;0.60;;;0.40;;
37517;SDS011;23366;52.498;13.446;2023-04-24T13:53:13;0.57;;;0.50;;
37517;SDS011;23366;52.498;13.446;2023-04-24T13:55:38;0.57;;;0.57;;
37517;SDS011;23366;52.498;13.446;2023-04-24T13:58:04;6.25;;;1.08;;
37517;SDS011;23366;52.498;13.446;2023-04-24T14:00:29;0.85;;;0.30;;
37517;SDS011;23366;52.498;13.446;2023-04-24T14:02:56;0.50;;;0.35;;
37517;SDS011;23366;52.498;13.446;2023-04-24T14:05:21;0.90;;;0.50;;
37517;SDS011;23366;52.498;13.446;2023-04-24T14:07:47;0.77;;;0.50;;
37517;SDS011;23366;52.498;13.446;2023-04-24T14:10:12;0.68;;;0.40;;
37517;SDS011;23366;52.498;13.446;2023-04-24T14:12:38;1.50;;;0.60;;
37517;SDS011;23366;52.498;13.446;2023-04-24T14:15:04;0.80;;;0.52;;
37517;SDS011;23366;52.498;13.446;2023-04-24T14:17:30;0.65;;;0.38;;
37517;SDS011;23366;52.498;13.446;2023-04-24T14:19:55;1.17;;;0.45;;
37517;SDS011;23366;52.498;13.446;2023-04-24T14:22:21;0.60;;;0.47;;
37517;SDS011;23366;52.498;13.446;2023-04-24T14:24:47;0.28;;;0.25;;
37517;SDS011;23366;52.498;13.446;2023-04-24T14:27:13;1.10;;;0.65;;
37517;SDS011;23366;52.498;13.446;2023-04-24T14:29:38;1.05;;;0.50;;
37517;SDS011;23366;52.498;13.446;2023-04-24T14:32:04;1.52;;;0.60;;
37517;SDS011;23366;52.498;13.446;2023-04-24T14:34:29;1.77;;;0.70;;
37517;SDS011;23366;52.498;13.446;2023-04-24T14:36:55;0.63;;;0.40;;
37517;SDS011;23366;52.498;13.446;2023-04-24T14:39:20;0.60;;;0.43;;
37517;SDS011;23366;52.498;13.446;2023-04-24T14:41:46;3.10;;;0.35;;
37517;SDS011;23366;52.498;13.446;2023-04-24T14:44:11;0.98;;;0.55;;
37517;SDS011;23366;52.498;13.446;2023-04-24T14:46:37;0.57;;;0.45;;
37517;SDS011;23366;52.498;13.446;2023-04-24T14:49:03;2.15;;;0.77;;
37517;SDS011;23366;52.498;13.446;2023-04-24T14:51:40;3.85;;;0.77;;
37517;SDS011;23366;52.498;13.446;2023-04-24T14:54:06;0.35;;;0.35;;
37517;SDS011;23366;52.498;13.446;2023-04-24T14:56:34;1.63;;;0.55;;
37517;SDS011;23366;52.498;13.446;2023-04-24T14:59:09;0.80;;;0.55;;
37517;SDS011;23366;52.498;13.446;2023-04-24T15:01:34;2.10;;;0.65;;
37517;SDS011;23366;52.498;13.446;2023-04-24T15:04:00;0.95;;;0.55;;
37517;SDS011;23366;52.498;13.446;2023-04-24T15:06:33;0.88;;;0.60;;
37517;SDS011;23366;52.498;13.446;2023-04-24T15:09:02;1.17;;;0.80;;
37517;SDS011;23366;52.498;13.446;2023-04-24T15:11:28;0.60;;;0.30;;
37517;SDS011;23366;52.498;13.446;2023-04-24T15:13:53;0.73;;;0.50;;
37517;SDS011;23366;52.498;13.446;2023-04-24T15:16:19;0.57;;;0.57;;